ADDS METAR Data INFO
IDs: Format: Raw Decoded Include TAF

Data at: 0139 UTC 20 Feb 2018

KLXL 200115Z AUTO 01006KT 7SM -SN OVC023 M10/M15 A3000 RMK AO2
KLXL 200055Z AUTO 36006KT 5SM -SN BKN023 OVC031 M10/M15 A3000 RMK AO2
KLXL 200035Z AUTO 01005KT 10SM -SN BKN023 OVC032 M10/M15 A3000 RMK AO2
KLXL 200015Z AUTO 36005KT 10SM -SN SCT023 OVC032 M10/M15 A3001 RMK AO2
KLXL 192355Z AUTO 36006KT 10SM -SN OVC034 M10/M15 A3000 RMK AO2
KLXL 192335Z AUTO 02005KT 10SM OVC037 M09/M15 A3000 RMK AO2
KLXL 192315Z AUTO 01006KT 333V043 10SM -SN OVC039 M09/M16 A3000 RMK AO2
KLXL 192255Z AUTO 36005KT 10SM OVC039 M10/M16 A3000 RMK AO2
KLXL 192235Z AUTO 35006KT 10SM OVC039 M10/M16 A3000 RMK AO2
KLXL 192215Z AUTO 36005KT 10SM OVC039 M09/M16 A2998 RMK AO2
KLXL 192155Z AUTO 36005KT 10SM OVC041 M09/M16 A2997 RMK AO2
KLXL 192135Z AUTO 02004KT 10SM BKN041 OVC050 M09/M16 A2997 RMK AO2
KLXL 192115Z AUTO 01004KT 10SM BKN041 OVC050 M10/M16 A2997 RMK AO2
KLXL 192055Z AUTO 01007KT 10SM BKN043 OVC055 M10/M16 A2998 RMK AO2
KLXL 192035Z AUTO 01004KT 6
KLXL 192015Z AUTO 36006KT 10SM BKN049 OVC060 M10/M16 A2998 RMK AO2
KLXL 191955Z AUTO 36004KT 10SM SCT049 OVC060 M10/M16 A2998 RMK AO2
KLXL 191935Z AUTO 36005KT 10SM -SN OVC060 M10/M16 A2999 RMK AO2
KLXL 191915Z AUTO 01004KT 10SM -SN OVC060 M10/M16 A2999 RMK AO2
KLXL 191855Z AUTO 01005KT 10SM -SN OVC060 M10/M16 A3000 RMK AO2
KLXL 191835Z AUTO 36004KT 5SM -SN OVC060 M10/M16 A3001 RMK AO2
KLXL 191815Z AUTO 01004KT 1SM -SN OVC009 M11/M15 A3001 RMK AO2
KLXL 191755Z AUTO 02004KT 3/4SM -SN OVC007 M11/M15 A3002 RMK AO2 P0001
KLXL 191735Z AUTO 36006KT 3/4SM -SN OVC007 M11/M15 A3002 RMK AO2 P0001
KLXL 191715Z AUTO 36007KT 6
KLXL 191655Z AUTO 36005KT 1 1/4SM -SN OVC010 M11/M16 A3002 RMK AO2
KLXL 191635Z AUTO 01005KT 1SM -SN OVC010 M11/M16 A3002 RMK AO2
KLXL 191615Z AUTO 36005KT 3/4SM -SN OVC008 M11/M16 A3002 RMK AO2
KLXL 191555Z AUTO 36007KT 16
KLXL 191535Z AUTO 36006KT 3/4SM -SN OVC008 M11/M16 A3000 RMK AO2
KLXL 191515Z AUTO 36007KT 1/2SM -SN OVC006 M11/M16 A3001 RMK AO2
KLXL 191455Z AUTO 36006KT 1/2SM SN OVC006 M11/M15 A3002 RMK AO2
KLXL 191435Z AUTO 35005KT 3/4SM -SN OVC008 M12/M16 A3004 RMK AO2
KLXL 191415Z AUTO 35005KT 1 1/4SM -SN OVC008 M12/M16 A3004 RMK AO2
KLXL 191355Z AUTO 36006KT 1SM -SN OVC008 M12/M16 A3004 RMK AO2
KLXL 191335Z AUTO 36005KT 1SM -SN OVC008 M12/M16 A3001 RMK AO2
KLXL 191315Z AUTO 35006KT 2SM -SN OVC010 M12/M16 A3001 RMK AO2
KLXL 191255Z AUTO 35006KT 2 1/2SM -SN OVC010 M11/M16 A3001 RMK AO2
KLXL 191235Z AUTO 35004KT 2SM -SN OVC008 M12/M16 A3000 RMK AO2
KLXL 191215Z AUTO 35005KT 3SM -SN OVC013 M11/M16 A3000 RMK AO2
KLXL 191155Z AUTO 36006KT 6
KLXL 191135Z AUTO 36007KT 10SM SCT025 BKN031 OVC050 M11/M17 A2997 RMK AO2
KLXL 191115Z AUTO 36005KT 10SM BKN050 OVC065 M11/M17 A2997 RMK AO2
KLXL 191055Z AUTO 01005KT 10SM BKN060 BKN070 OVC090 M11/M16 A2997 RMK AO2
KLXL 191035Z AUTO 36005KT 10SM OVC090 M11/M16 A2994 RMK AO2
KLXL 191015Z AUTO 35005KT 10SM SCT011 SCT024 OVC100 M11/M16 A2993 RMK AO2
KLXL 190955Z AUTO 35008KT 323V023 3SM -SN BKN011 BKN019 OVC026 M11/M16 A2991 RMK AO2
KLXL 190935Z AUTO 35006KT 5SM -SN SCT016 BKN026 OVC032 M11/M16 A2991 RMK AO2
KLXL 190915Z AUTO 36004KT 3SM -SN BKN016 BKN025 OVC030 M11/M16 A2995 RMK AO2
KLXL 190855Z AUTO 35005KT 10SM BKN032 BKN042 OVC050 M11/M16 A2994 RMK AO2
KLXL 190835Z AUTO 35008G17KT 323V033 10SM SCT050 SCT065 OVC080 M11/M16 A2995 RMK AO2
KLXL 190815Z AUTO 36005G16KT 10SM SCT039 OVC0806
KLXL 190755Z AUTO 35008KT 323V023 10SM BKN039 M11/M16 A2991 RMK AO2
KLXL 190735Z AUTO 35008G16KT 323V023 10SM BKN039 M10/M16 A2989 RMK AO2
KLXL 190715Z AUTO 35005G16KT 10SM SCT033 OVC041 M10/M15 A2988 RMK AO2
KLXL 190655Z AUTO 34008G16KT 10SM OVC033 M09/M15 A2989 RMK AO2
KLXL 190635Z AUTO 35008G16KT 10SM OVC033 M09/M14 A2986 RMK AO2
KLXL 190615Z AUTO 35006KT 323V023 10SM OVC033 M08/M14 A2985 RMK AO2
KLXL 190555Z AUTO 35008KT 10SM SCT014 OVC033 M08/M13 A2987 RMK AO2
KLXL 190535Z AUTO 34008G14KT 10SM OVC033 M07/M12 A2987 RMK AO2
KLXL 190515Z AUTO 34007KT 10SM OVC033 M07/M12 A2987 RMK AO2
KLXL 190455Z AUTO 35007KT 10SM OVC033 M06/M12 A2985 RMK AO2
KLXL 190435Z AUTO 35008KT 323V033 10SM SCT014 OVC033 M06/M12 A2984 RMK AO2
KLXL 190415Z AUTO 36005KT 10SM BKN014 OVC033 M06/M12 A2983 RMK AO2
KLXL 190355Z AUTO 34007KT 10SM SCT014 OVC033 M06/M11 A2980 RMK AO2
KLXL 190335Z AUTO 35005KT 10SM SCT015 SCT033 M06/M11 A2978 RMK AO2
KLXL 190315Z AUTO 35005KT 10SM SCT110 M06/M11 A2977 RMK AO2
KLXL 190256Z AUTO 36005KT 10SM BKN110 M06/M11 A2977 RMK AO2
KLXL 190235Z AUTO 34000KT 10SM SCT060 OVC120 M06/M11 A2977 RMK AO2 LTG /06
KLXL 190215Z AUTO 36007KT 333V033 10SM BKN060 OVC110 M06/M10 A2977 RMK AO2
KLXL 190155Z AUTO 34003KT 10SM SCT043 OVC060 M06/M10 A2977 RMK AO2
KLXL 190135Z AUTO 34006KT 7SM -SN OVC043 M06/M10 A2977 RMK AO2
KLXL 190115Z AUTO 35005G14KT 10SM -SN SCT025 BKN043 OVC110 M05/M10 A2975 RMK AO2
KLXL 190055Z AUTO 36006KT 7SM -SN SCT012 BKN026 OVC070 M05/M10 A2974 RMK AO2
KLXL 190035Z AUTO 35006KT 1 3/4SM -SN BKN010 BKN020 OVC030 M05/M09 A2973 RMK AO2 VIS 1 1/2V2 1/2
KLXL 190015Z AUTO 35006KT 7SM -SN SCT033 BKN048 OVC070 M05/M10 A2970 RMK AO2
KLXL 182355Z AUTO 36006KT 10SM SCT028 BKN050 OVC070 M05/M10 A2968 RMK AO2
KLXL 182335Z AUTO 35008G14KT 10SM -SN BKN028 BKN038 OVC060 M05/M10 A2966 RMK AO2
KLXL 182315Z AUTO 35007KT 10SM BKN027 BKN032 OVC041 M03/M11 A2966 RMK AO2
KLXL 182255Z AUTO 35007KT 10SM SCT038 BKN044 OVC050 M02/M11 A2965 RMK AO2
KLXL 182235Z AUTO 35006KT 6
KLXL 182215Z AUTO 35006KT 10SM BKN070 OVC080 M02/M11 A2963 RMK AO2
KLXL 182155Z AUTO 35008KT 10SM BKN090 OVC120 M01/M11 A2962 RMK AO2
KLXL 182135Z AUTO 34006KT 323V033 10SM SCT090 BKN120 00/M10 A2960 RMK AO2
KLXL 182115Z AUTO 02005KT 10SM OVC090 00/M08 A2959 RMK AO2
KLXL 182055Z AUTO 01003KT 10SM OVC100 01/M08 A2959 RMK AO2
KLXL 182035Z AUTO 03004KT 10SM OVC100 01/M08 A2958 RMK AO2
KLXL 182015Z AUTO 07004KT 6
KLXL 181955Z AUTO 10003KT 10SM BKN110 00/M08 A2958 RMK AO2
KLXL 181935Z AUTO 10006KT 10SM SCT120 00/M08 A2958 RMK AO2
KLXL 181915Z AUTO 11004KT 10SM BKN120 00/M08 A2959 RMK AO2
KLXL 181855Z AUTO 10004KT 10SM BKN120 00/M08 A2960 RMK AO2
KLXL 181835Z AUTO 12003KT 10SM BKN120 M01/M10 A2961 RMK AO2
KLXL 181815Z AUTO 10005KT 10SM OVC120 M02/M11 A2962 RMK AO2
KLXL 181755Z AUTO 09006KT 10SM OVC110 M02/M12 A2963 RMK AO2
KLXL 181735Z AUTO 12006KT 10SM OVC110 M02/M12 A2965 RMK AO2
KLXL 181715Z AUTO 12008KT 10SM BKN100 M02/M13 A2965 RMK AO2
KLXL 181655Z AUTO 12007KT 10SM SCT090 BKN110 M03/M13 A2966 RMK AO2
KLXL 181635Z AUTO 13010KT 10SM SCT090 OVC110 M03/M14 A2967 RMK AO2
KLXL 181615Z AUTO 12009G14KT 10SM OVC110 M04/M15 A2970 RMK AO2
KLXL 181555Z AUTO 12009KT 10SM OVC110 M05/M15 A2972 RMK AO2
KLXL 181535Z AUTO 12010G14KT 10SM OVC090 M05/M16 A2974 RMK AO2
KLXL 181515Z AUTO 12009G18KT 10SM OVC090 M05/M16 A2974 RMK AO2
KLXL 181455Z AUTO 11013G21KT 10SM OVC080 M06/M16 A2973 RMK AO2
KLXL 181435Z AUTO 11014G21KT 10SM OVC080 M06/M16 A2975 RMK AO2
KLXL 181415Z AUTO 11016G21KT 10SM SCT070 OVC080 M06/M16 A2978 RMK AO2
KLXL 181355Z AUTO 12012G19KT 10SM BKN060 OVC070 M07/M16 A2982 RMK AO2